Time;durP1;ratioP1;P1;durP2;ratioP2;P2;SDS_P1;SDS_P2;PMS_P1;PMS_P2;Temp;Humidity;BMP_temperature;BMP_pressure;BME280_temperature;BME280_humidity;BME280_pressure;Samples;Min_cycle;Max_cycle;Signal;HPM_P1;HPM_P2
2022/01/12 00:00:32;;;;;;;16.45;7.17;;;;;;;-13.36;97.08;100770.17;1713453;82;21224;-64
2022/01/12 00:02:58;;;;;;;18.17;7.53;;;;;;;-13.35;97.07;100774.50;1727329;81;21037;-64
2022/01/12 00:05:24;;;;;;;27.55;10.43;;;;;;;-13.39;97.05;100773.09;1719868;81;21029;-65
2022/01/12 00:07:53;;;;;;;19.48;9.28;;;;;;;-13.45;97.06;100766.02;1736634;81;21502;-64
2022/01/12 00:10:23;;;;;;;21.10;9.15;;;;;;;-13.42;97.08;100776.02;1739044;80;20995;-65
2022/01/12 00:12:49;;;;;;;24.98;9.48;;;;;;;-13.44;96.93;100778.30;1734073;81;21048;-65
2022/01/12 00:15:16;;;;;;;24.02;9.70;;;;;;;-13.46;96.92;100774.11;1698204;83;21508;-64
2022/01/12 00:17:43;;;;;;;18.20;7.50;;;;;;;-13.44;96.92;100770.84;1719184;81;21080;-65
2022/01/12 00:20:10;;;;;;;19.25;7.95;;;;;;;-13.42;96.91;100765.41;1714905;81;21150;-64
2022/01/12 00:22:39;;;;;;;18.67;7.65;;;;;;;-13.41;96.83;100767.92;1717391;81;21883;-65
2022/01/12 00:33:16;;;;;;;23.55;6.17;;;;;;;-13.51;96.70;100770.50;1717044;81;21099;-65
2022/01/12 00:35:48;;;;;;;15.48;7.03;;;;;;;-13.52;96.68;100767.53;1704401;82;21613;-65
2022/01/12 00:38:16;;;;;;;15.30;7.95;;;;;;;-13.53;96.71;100769.84;1698187;81;21087;-65
2022/01/12 00:40:49;;;;;;;14.33;6.47;;;;;;;-13.53;96.73;100769.84;1732410;80;21070;-65
2022/01/12 00:43:17;;;;;;;15.40;7.05;;;;;;;-13.49;96.80;100767.23;1722264;81;21237;-65
2022/01/12 00:45:45;;;;;;;20.25;8.60;;;;;;;-13.45;96.82;100770.47;1706796;83;21096;-66
2022/01/12 00:48:16;;;;;;;16.42;7.22;;;;;;;-13.40;96.84;100774.05;1705703;81;21209;-65
2022/01/12 00:50:45;;;;;;;18.12;7.28;;;;;;;-13.39;96.83;100771.27;1720107;81;21117;-65
2022/01/12 00:53:16;;;;;;;15.40;6.95;;;;;;;-13.38;96.88;100775.61;1712906;81;21046;-67
2022/01/12 00:55:42;;;;;;;13.20;6.08;;;;;;;-13.36;96.91;100775.48;1711518;80;21526;-65
2022/01/12 00:58:08;;;;;;;13.35;6.30;;;;;;;-13.34;96.93;100777.52;1715175;81;21050;-66
2022/01/12 01:00:35;;;;;;;16.60;7.30;;;;;;;-13.35;96.92;100767.86;1699426;82;21183;-65
2022/01/12 01:03:01;;;;;;;18.42;7.55;;;;;;;-13.33;96.95;100773.41;1698448;80;21505;-65
2022/01/12 01:05:32;;;;;;;20.00;7.22;;;;;;;-13.29;97.03;100772.66;1718559;81;21064;-66
2022/01/12 01:07:58;;;;;;;23.27;8.63;;;;;;;-13.33;97.02;100768.58;1743485;80;21047;-66
2022/01/12 01:13:10;;;;;;;25.00;7.92;;;;;;;-13.33;97.09;100772.08;1721106;81;21117;-65
2022/01/12 01:15:56;;;;;;;21.45;8.60;;;;;;;-13.27;97.11;100773.85;1700791;82;21012;-66
2022/01/12 01:26:24;;;;;;;19.12;8.53;;;;;;;-13.18;97.04;100771.71;1659745;83;21149;-66
2022/01/12 01:28:53;;;;;;;15.60;6.35;;;;;;;-13.21;97.00;100778.62;1677205;83;21076;-67
2022/01/12 01:31:28;;;;;;;12.93;7.22;;;;;;;-13.24;96.95;100781.06;1668870;83;21045;-64
2022/01/12 01:33:49;;;;;;;13.13;6.08;;;;;;;-13.21;96.99;100782.60;1697985;82;21651;-64
2022/01/12 01:36:16;;;;;;;11.12;4.92;;;;;;;-13.21;96.99;100776.81;1683645;82;21067;-65
2022/01/12 01:38:45;;;;;;;9.73;5.17;;;;;;;-13.29;96.87;100789.06;1683428;81;21072;-64
2022/01/12 01:41:14;;;;;;;11.25;4.83;;;;;;;-13.35;96.74;100779.80;1709809;81;21107;-65
2022/01/12 01:44:04;;;;;;;16.73;6.12;;;;;;;-13.47;96.69;100781.70;1715313;81;21160;-65
2022/01/12 01:54:32;;;;;;;21.05;6.92;;;;;;;-13.63;96.53;100771.60;1722279;81;20992;-66
2022/01/12 01:56:59;;;;;;;19.60;6.70;;;;;;;-13.59;96.60;100779.16;1705516;82;21179;-65
2022/01/12 01:59:26;;;;;;;18.35;6.20;;;;;;;-13.57;96.61;100775.89;1698580;83;21091;-64
2022/01/12 02:01:53;;;;;;;14.70;6.55;;;;;;;-13.54;96.65;100780.59;1696900;81;21673;-66
2022/01/12 02:04:21;;;;;;;27.70;7.83;;;;;;;-13.49;96.70;100783.16;1693070;81;22400;-65
2022/01/12 02:06:50;;;;;;;21.90;7.42;;;;;;;-13.49;96.64;100779.69;1698393;83;21113;-65
2022/01/12 02:09:17;;;;;;;16.75;6.70;;;;;;;-13.50;96.63;100788.59;1709387;81;21076;-65
2022/01/12 02:11:51;;;;;;;15.45;7.08;;;;;;;-13.55;96.61;100782.39;1714744;82;21024;-64
2022/01/12 02:14:19;;;;;;;13.70;6.33;;;;;;;-13.55;96.65;100778.89;1717012;82;21031;-64
2022/01/12 02:17:01;;;;;;;19.62;6.90;;;;;;;-13.57;96.61;100777.70;1676314;83;21195;-64
2022/01/12 02:36:19;;;;;;;17.52;7.15;;;;;;;-13.50;96.61;100787.27;1704912;82;21069;-65
2022/01/12 02:41:26;;;;;;;18.23;5.55;;;;;;;-13.54;96.41;100786.72;1726654;81;21078;-65
2022/01/12 02:54:48;;;;;;;17.70;6.80;;;;;;;-13.44;96.46;100785.44;1700846;81;21111;-64
2022/01/12 02:57:15;;;;;;;16.35;6.72;;;;;;;-13.46;96.39;100783.39;1734084;80;21263;-64
2022/01/12 03:00:03;;;;;;;16.23;6.75;;;;;;;-13.47;96.32;100783.02;1714431;82;21195;-65
2022/01/12 03:05:32;;;;;;;13.00;5.80;;;;;;;-13.65;96.08;100776.19;1680158;83;21001;-64
2022/01/12 03:07:46;;;;;;;19.55;7.37;;;;;;;-13.69;96.07;100779.10;1732738;80;21571;-66
2022/01/12 03:10:13;;;;;;;18.32;6.62;;;;;;;-13.72;96.01;100778.05;1728788;81;21126;-65
2022/01/12 03:12:43;;;;;;;18.60;7.25;;;;;;;-13.72;95.93;100773.21;1703062;80;21014;-67
2022/01/12 03:15:11;;;;;;;16.37;7.12;;;;;;;-13.74;95.92;100776.47;1679871;83;21519;-65
2022/01/12 03:17:39;;;;;;;15.18;6.92;;;;;;;-13.80;95.79;100776.53;1705570;81;21512;-66
2022/01/12 03:20:08;;;;;;;18.00;7.15;;;;;;;-13.84;95.72;100778.59;1710996;82;21584;-65
2022/01/12 03:22:35;;;;;;;12.90;5.62;;;;;;;-13.91;95.62;100781.86;1691462;81;21131;-65
2022/01/12 03:25:02;;;;;;;13.95;6.22;;;;;;;-14.01;95.53;100776.50;1704393;82;21059;-65
2022/01/12 03:27:29;;;;;;;14.93;6.83;;;;;;;-14.09;95.42;100777.15;1681227;83;21051;-65
2022/01/12 03:29:57;;;;;;;22.40;7.47;;;;;;;-14.14;95.39;100785.45;1680842;83;21027;-65
2022/01/12 03:32:48;;;;;;;15.08;6.35;;;;;;;-14.16;95.36;100778.14;1681954;81;21070;-65
2022/01/12 04:09:45;;;;;;;13.68;6.12;;;;;;;-14.74;94.69;100779.27;1722825;81;21669;-65
2022/01/12 04:12:14;;;;;;;16.27;6.30;;;;;;;-14.71;94.75;100775.89;1722792;81;21191;-66
2022/01/12 04:14:44;;;;;;;18.25;7.62;;;;;;;-14.68;94.70;100777.44;1733634;80;21185;-65
2022/01/12 04:17:10;;;;;;;12.15;5.80;;;;;;;-14.73;94.58;100775.64;1659879;83;21546;-66
2022/01/12 04:19:40;;;;;;;16.35;5.03;;;;;;;-14.74;94.49;100777.94;1716567;81;21508;-65
2022/01/12 04:23:16;;;;;;;18.95;6.92;;;;;;;-14.77;94.39;100779.02;1700787;82;21524;-65
2022/01/12 04:24:37;;;;;;;23.02;8.13;;;;;;;-14.82;94.34;100775.95;1711012;81;21790;-66
2022/01/12 04:27:04;;;;;;;15.55;5.67;;;;;;;-14.86;94.20;100773.17;1712964;81;21081;-66
2022/01/12 04:29:34;;;;;;;25.55;8.53;;;;;;;-14.93;94.08;100775.00;1711829;82;21228;-65
2022/01/12 04:32:02;;;;;;;17.60;6.90;;;;;;;-14.98;94.01;100763.94;1717068;82;21544;-66
2022/01/12 04:34:28;;;;;;;26.02;8.38;;;;;;;-15.03;93.91;100764.78;1705085;82;20999;-66
2022/01/12 04:36:55;;;;;;;29.42;9.23;;;;;;;-15.05;93.83;100765.38;1717670;82;21144;-66
2022/01/12 04:39:21;;;;;;;29.63;10.03;;;;;;;-15.09;93.76;100763.45;1717467;82;20996;-66
2022/01/12 04:41:48;;;;;;;18.35;7.12;;;;;;;-15.11;93.70;100762.73;1687097;82;21020;-66
2022/01/12 04:44:14;;;;;;;27.13;8.98;;;;;;;-15.15;93.58;100769.23;1712214;81;21489;-66
2022/01/12 04:47:03;;;;;;;22.70;7.67;;;;;;;-15.17;93.51;100771.16;1704711;82;21083;-65
2022/01/12 04:49:46;;;;;;;23.85;7.97;;;;;;;-15.14;93.50;100774.03;1719804;81;21150;-66
2022/01/12 04:51:54;;;;;;;22.95;7.70;;;;;;;-15.17;93.44;100778.63;1692129;83;21016;-66
2022/01/12 04:54:21;;;;;;;22.32;7.67;;;;;;;-15.20;93.36;100784.16;1732584;81;21030;-66
2022/01/12 04:56:48;;;;;;;25.48;8.28;;;;;;;-15.21;93.28;100782.93;1715183;81;22254;-66
2022/01/12 04:59:15;;;;;;;18.32;6.25;;;;;;;-15.21;93.28;100779.81;1713774;81;21149;-66
2022/01/12 05:01:51;;;;;;;24.05;8.45;;;;;;;-15.21;93.32;100782.93;1701551;82;21117;-65
2022/01/12 05:07:12;;;;;;;21.95;7.92;;;;;;;-15.21;93.30;100783.78;1726836;81;21172;-65
2022/01/12 05:14:45;;;;;;;26.33;8.75;;;;;;;-15.19;93.36;100789.80;1721813;81;21205;-65
2022/01/12 05:17:08;;;;;;;29.15;9.98;;;;;;;-15.19;93.34;100791.12;1712328;81;21222;-65
2022/01/12 05:19:34;;;;;;;13.72;6.10;;;;;;;-15.16;93.39;100790.88;1740052;80;21051;-64
2022/01/12 05:22:01;;;;;;;18.67;8.78;;;;;;;-15.17;93.30;100794.97;1719720;81;22104;-65
2022/01/12 05:24:29;;;;;;;25.90;8.98;;;;;;;-15.22;93.17;100794.48;1709864;82;21069;-65
2022/01/12 05:26:56;;;;;;;20.52;7.70;;;;;;;-15.24;93.20;100801.22;1711290;81;21822;-65
2022/01/12 05:29:22;;;;;;;23.00;7.87;;;;;;;-15.26;93.09;100793.02;1715298;80;21027;-64
2022/01/12 05:31:49;;;;;;;19.77;7.72;;;;;;;-15.26;93.09;100800.95;1713721;82;21105;-66
2022/01/12 05:34:17;;;;;;;19.15;7.20;;;;;;;-15.32;93.00;100795.69;1693339;83;21518;-65
2022/01/12 05:36:46;;;;;;;18.85;6.58;;;;;;;-15.36;92.94;100803.01;1695985;82;21075;-65
2022/01/12 05:39:13;;;;;;;19.17;6.83;;;;;;;-15.42;92.82;100793.73;1703682;83;21302;-64
2022/01/12 05:41:39;;;;;;;23.60;7.65;;;;;;;-15.45;92.72;100796.63;1719750;81;21090;-65
2022/01/12 05:44:07;;;;;;;21.50;7.90;;;;;;;-15.46;92.69;100804.20;1707591;82;21624;-66
2022/01/12 05:46:39;;;;;;;26.23;9.65;;;;;;;-15.50;92.61;100797.45;1672169;83;21183;-64
2022/01/12 05:51:53;;;;;;;29.18;9.65;;;;;;;-15.55;92.53;100794.32;1703112;81;21161;-65
2022/01/12 05:54:19;;;;;;;19.98;7.87;;;;;;;-15.57;92.46;100796.27;1685901;83;21058;-65
2022/01/12 05:56:47;;;;;;;26.15;7.67;;;;;;;-15.63;92.40;100790.11;1720059;80;21526;-65
2022/01/12 05:59:14;;;;;;;30.00;8.88;;;;;;;-15.65;92.35;100794.19;1715123;82;21099;-65
2022/01/12 06:01:41;;;;;;;28.10;8.53;;;;;;;-15.68;92.32;100792.64;1711893;83;21576;-66
2022/01/12 06:04:08;;;;;;;27.15;9.35;;;;;;;-15.72;92.28;100800.89;1705804;80;21501;-64
2022/01/12 06:06:38;;;;;;;21.93;8.08;;;;;;;-15.78;92.22;100801.72;1727832;80;21661;-64
2022/01/12 06:09:07;;;;;;;25.45;10.18;;;;;;;-15.77;92.25;100810.50;1717871;80;21237;-64
2022/01/12 06:11:33;;;;;;;16.15;8.00;;;;;;;-15.73;92.34;100808.47;1707906;81;21131;-65
2022/01/12 06:14:02;;;;;;;18.90;7.80;;;;;;;-15.70;92.33;100807.77;1691269;82;21077;-65
2022/01/12 06:16:29;;;;;;;22.45;8.20;;;;;;;-15.71;92.22;100810.02;1715568;81;21128;-65
2022/01/12 06:18:58;;;;;;;18.77;7.55;;;;;;;-15.78;92.13;100806.19;1672753;83;21558;-66
2022/01/12 06:21:26;;;;;;;23.92;8.20;;;;;;;-15.86;92.05;100814.67;1724316;82;21060;-65
2022/01/12 06:23:57;;;;;;;19.67;7.80;;;;;;;-15.92;92.03;100808.53;1703280;82;21618;-64
2022/01/12 06:26:25;;;;;;;28.92;7.90;;;;;;;-15.94;92.04;100805.16;1688646;83;21081;-65
2022/01/12 06:31:34;;;;;;;26.23;7.95;;;;;;;-15.91;92.07;100804.92;1649222;82;22875;-65
2022/01/12 06:34:04;;;;;;;25.35;9.40;;;;;;;-15.86;92.12;100815.17;1690781;82;21072;-65
2022/01/12 06:36:33;;;;;;;31.85;10.28;;;;;;;-15.85;92.15;100812.87;1706735;81;21114;-65
2022/01/12 06:39:00;;;;;;;19.70;7.97;;;;;;;-15.83;92.16;100813.61;1713178;83;21071;-65
2022/01/12 06:41:26;;;;;;;31.95;10.45;;;;;;;-15.89;92.05;100815.76;1677271;82;21230;-64
2022/01/12 06:43:54;;;;;;;26.20;9.80;;;;;;;-15.94;92.02;100815.26;1692071;82;21043;-64
2022/01/12 06:46:29;;;;;;;25.65;9.30;;;;;;;-15.95;91.99;100814.91;1688664;83;21491;-65
2022/01/12 06:48:49;;;;;;;23.45;9.68;;;;;;;-15.93;92.00;100817.43;1707980;82;21051;-65
2022/01/12 06:51:19;;;;;;;19.70;8.43;;;;;;;-15.92;91.96;100830.52;1716248;82;21028;-65
2022/01/12 06:53:50;;;;;;;24.50;8.30;;;;;;;-15.92;91.97;100827.88;1707460;81;21171;-64
2022/01/12 06:56:17;;;;;;;26.87;8.18;;;;;;;-15.84;92.00;100826.45;1715146;81;21092;-65
2022/01/12 06:58:45;;;;;;;23.62;8.80;;;;;;;-15.79;92.09;100828.27;1705876;81;21048;-65
2022/01/12 07:01:15;;;;;;;22.98;8.83;;;;;;;-15.83;92.01;100822.86;1692501;82;21092;-65
2022/01/12 07:03:43;;;;;;;22.95;9.65;;;;;;;-15.84;92.02;100831.27;1719525;81;21012;-65
2022/01/12 07:06:10;;;;;;;22.82;7.47;;;;;;;-15.82;92.14;100832.00;1703837;82;22199;-65
2022/01/12 07:08:38;;;;;;;22.05;8.48;;;;;;;-15.75;92.18;100829.73;1711392;81;21527;-65
2022/01/12 07:11:06;;;;;;;32.90;9.83;;;;;;;-15.69;92.32;100825.30;1701413;82;21067;-65
2022/01/12 07:13:32;;;;;;;24.45;9.85;;;;;;;-15.67;92.34;100837.92;1721822;80;21493;-64
2022/01/12 07:16:01;;;;;;;28.10;10.78;;;;;;;-15.63;92.41;100832.40;1706363;81;21275;-66
2022/01/12 07:18:29;;;;;;;48.55;15.00;;;;;;;-15.57;92.46;100831.45;1712093;80;21156;-65
2022/01/12 07:20:59;;;;;;;27.77;8.18;;;;;;;-15.55;92.45;100830.02;1715988;80;21459;-65
2022/01/12 07:23:26;;;;;;;29.48;9.95;;;;;;;-15.55;92.49;100829.55;1719589;80;21502;-65
2022/01/12 07:25:53;;;;;;;29.42;8.55;;;;;;;-15.56;92.46;100827.88;1720531;81;21029;-67
2022/01/12 07:28:20;;;;;;;30.95;11.53;;;;;;;-15.51;92.55;100832.80;1724232;81;21588;-64
2022/01/12 07:30:46;;;;;;;26.30;9.38;;;;;;;-15.52;92.55;100829.30;1718761;81;21121;-64
2022/01/12 07:33:13;;;;;;;31.93;9.90;;;;;;;-15.44;92.73;100837.99;1703804;82;21132;-65
2022/01/12 07:35:44;;;;;;;30.52;11.05;;;;;;;-15.38;92.75;100837.98;1722420;82;21615;-65
2022/01/12 07:38:12;;;;;;;27.42;8.25;;;;;;;-15.35;92.85;100835.60;1722263;81;21043;-65
2022/01/12 07:40:39;;;;;;;21.62;8.80;;;;;;;-15.28;92.96;100826.20;1725385;81;21064;-66
2022/01/12 07:43:06;;;;;;;28.07;9.30;;;;;;;-15.21;92.99;100830.55;1736829;81;21211;-66
2022/01/12 07:45:34;;;;;;;27.65;10.85;;;;;;;-15.21;93.00;100829.22;1696041;80;21498;-66
2022/01/12 07:48:00;;;;;;;20.77;9.38;;;;;;;-15.19;93.05;100827.30;1716046;82;21099;-66
2022/01/12 07:50:27;;;;;;;30.17;10.00;;;;;;;-15.14;93.10;100833.08;1705022;82;21048;-66
2022/01/12 07:52:59;;;;;;;23.60;8.20;;;;;;;-15.04;93.24;100835.84;1711879;82;21017;-65
2022/01/12 07:55:26;;;;;;;22.95;9.00;;;;;;;-15.00;93.18;100828.52;1722236;81;21144;-65
2022/01/12 07:57:53;;;;;;;31.52;9.93;;;;;;;-15.00;93.14;100830.69;1715405;82;21209;-66
2022/01/12 08:00:20;;;;;;;45.55;9.83;;;;;;;-14.96;93.19;100837.41;1723476;81;21025;-66
2022/01/12 08:02:49;;;;;;;24.55;9.63;;;;;;;-14.89;93.31;100839.59;1720792;81;21057;-66
2022/01/12 08:05:16;;;;;;;27.02;10.38;;;;;;;-14.86;93.29;100832.73;1695136;82;21659;-66
2022/01/12 08:07:43;;;;;;;31.27;12.07;;;;;;;-14.79;93.38;100829.94;1714624;81;21157;-66
2022/01/12 08:10:09;;;;;;;34.00;11.48;;;;;;;-14.70;93.58;100836.28;1739535;81;21059;-67
2022/01/12 08:12:37;;;;;;;40.43;13.45;;;;;;;-14.57;93.77;100836.16;1738874;81;21020;-67
2022/01/12 08:15:05;;;;;;;42.30;14.35;;;;;;;-14.55;93.73;100825.80;1723538;81;21021;-67
2022/01/12 08:17:34;;;;;;;30.37;11.68;;;;;;;-14.48;93.86;100827.97;1715501;82;21145;-65
2022/01/12 08:20:02;;;;;;;22.55;9.43;;;;;;;-14.33;94.10;100835.16;1706359;82;21588;-67
2022/01/12 08:22:29;;;;;;;22.52;9.50;;;;;;;-14.18;94.25;100839.21;1697441;83;21041;-65
2022/01/12 08:24:55;;;;;;;24.82;9.48;;;;;;;-14.12;94.19;100844.47;1670002;83;21058;-66
2022/01/12 08:27:22;;;;;;;28.62;11.88;;;;;;;-14.06;94.36;100843.99;1720519;81;20988;-65
2022/01/12 08:29:50;;;;;;;25.23;9.88;;;;;;;-14.15;94.04;100846.05;1696552;83;21021;-65
2022/01/12 08:32:17;;;;;;;26.73;9.28;;;;;;;-14.19;93.98;100833.53;1696177;83;22935;-65
2022/01/12 08:34:46;;;;;;;31.68;9.93;;;;;;;-14.16;94.10;100828.48;1700079;81;21096;-67
2022/01/12 08:37:16;;;;;;;35.80;13.10;;;;;;;-14.10;94.25;100834.59;1705018;81;21680;-63
2022/01/12 08:39:42;;;;;;;17.90;8.40;;;;;;;-14.10;94.09;100831.95;1704010;82;21011;-63
2022/01/12 08:42:09;;;;;;;28.87;9.38;;;;;;;-14.04;94.15;100832.41;1698508;82;21331;-63
2022/01/12 08:44:40;;;;;;;28.10;10.18;;;;;;;-14.08;94.03;100821.22;1706975;81;21094;-64
2022/01/12 08:47:09;;;;;;;27.98;9.58;;;;;;;-14.11;93.95;100824.13;1710444;81;21047;-63
2022/01/12 08:49:36;;;;;;;29.75;8.83;;;;;;;-14.07;94.11;100821.56;1691742;82;21170;-63
2022/01/12 08:52:06;;;;;;;34.53;10.48;;;;;;;-14.06;94.04;100824.59;1692601;82;21063;-65
2022/01/12 08:54:34;;;;;;;19.80;8.40;;;;;;;-14.07;94.04;100829.52;1719769;82;21166;-64
2022/01/12 08:57:01;;;;;;;11.75;5.17;;;;;;;-14.07;94.08;100821.56;1697957;82;21135;-64
2022/01/12 08:59:29;;;;;;;26.07;8.40;;;;;;;-14.04;94.04;100831.09;1710141;81;21027;-64
2022/01/12 09:01:57;;;;;;;19.42;7.58;;;;;;;-14.18;93.65;100826.44;1707623;81;21071;-65
2022/01/12 09:04:24;;;;;;;16.45;7.08;;;;;;;-14.27;93.62;100826.70;1695234;82;21137;-63
2022/01/12 09:06:51;;;;;;;20.30;6.70;;;;;;;-14.29;93.62;100823.33;1723167;81;21133;-63
2022/01/12 09:09:18;;;;;;;19.02;6.90;;;;;;;-14.24;93.81;100822.98;1707862;81;22084;-66
2022/01/12 09:11:46;;;;;;;28.95;9.83;;;;;;;-14.13;94.01;100810.16;1696780;82;21026;-65
2022/01/12 09:14:15;;;;;;;22.25;8.73;;;;;;;-14.01;94.22;100814.92;1683243;83;21505;-65
2022/01/12 09:16:41;;;;;;;19.60;6.60;;;;;;;-13.97;94.14;100811.07;1717241;80;21045;-63
2022/01/12 09:19:11;;;;;;;32.78;10.35;;;;;;;-13.99;94.01;100799.27;1715563;80;21661;-64
2022/01/12 09:21:39;;;;;;;27.32;8.48;;;;;;;-14.03;93.90;100805.78;1692701;81;21091;-65
2022/01/12 09:24:06;;;;;;;22.70;8.83;;;;;;;-14.01;94.01;100805.17;1736488;81;21086;-66
2022/01/12 09:26:32;;;;;;;15.28;6.65;;;;;;;-13.95;94.01;100805.12;1691376;82;21049;-64
2022/01/12 09:29:02;;;;;;;17.00;6.97;;;;;;;-13.77;94.39;100795.30;1738099;80;21098;-63
2022/01/12 09:31:30;;;;;;;17.98;6.40;;;;;;;-13.71;94.44;100799.59;1736647;81;21609;-64
2022/01/12 09:33:57;;;;;;;22.30;7.92;;;;;;;-13.77;94.17;100800.59;1735526;81;21179;-64
2022/01/12 09:36:23;;;;;;;26.65;9.23;;;;;;;-13.82;94.30;100785.09;1739059;80;21170;-64
2022/01/12 09:38:50;;;;;;;22.75;9.08;;;;;;;-13.73;94.56;100790.11;1723423;81;21639;-63
2022/01/12 09:41:17;;;;;;;18.35;7.60;;;;;;;-13.64;94.68;100781.83;1725697;79;21081;-62
2022/01/12 09:43:47;;;;;;;20.50;7.62;;;;;;;-13.62;94.51;100790.51;1676948;83;20996;-63
2022/01/12 09:46:14;;;;;;;22.77;8.30;;;;;;;-13.64;94.58;100785.81;1658008;83;21123;-65
2022/01/12 09:48:42;;;;;;;20.15;7.97;;;;;;;-13.61;94.73;100782.92;1715677;81;21097;-64
2022/01/12 09:51:10;;;;;;;13.25;5.00;;;;;;;-13.55;94.89;100789.50;1715598;81;21012;-65
2022/01/12 09:53:39;;;;;;;16.95;6.67;;;;;;;-13.51;94.86;100789.61;1714287;81;21087;-63
2022/01/12 09:56:18;;;;;;;19.32;6.87;;;;;;;-13.54;94.76;100780.59;1723638;80;21620;-64
2022/01/12 09:58:51;;;;;;;28.92;8.38;;;;;;;-13.64;94.60;100784.01;1725339;82;21536;-62
2022/01/12 10:01:33;;;;;;;18.35;7.83;;;;;;;-13.68;94.61;100773.33;1709189;82;21125;-63
2022/01/12 10:04:16;;;;;;;17.05;6.30;;;;;;;-13.73;94.56;100770.22;1717285;80;21050;-64
2022/01/12 10:06:52;;;;;;;16.95;6.47;;;;;;;-13.75;94.56;100762.39;1713003;82;21065;-64
2022/01/12 10:09:39;;;;;;;23.50;7.92;;;;;;;-13.68;94.66;100772.00;1706853;81;21057;-63
2022/01/12 10:12:16;;;;;;;22.90;8.20;;;;;;;-13.64;94.81;100772.55;1739684;81;21065;-66
2022/01/12 10:14:55;;;;;;;24.72;7.37;;;;;;;-13.62;94.86;100770.62;1693475;82;21064;-65
2022/01/12 10:17:36;;;;;;;21.73;6.90;;;;;;;-13.58;94.97;100773.38;1722943;81;21027;-64
2022/01/12 10:20:19;;;;;;;18.12;6.42;;;;;;;-13.57;94.99;100775.05;1724432;81;21530;-64
2022/01/12 10:23:02;;;;;;;18.45;7.22;;;;;;;-13.53;95.01;100765.02;1730286;80;21133;-64
2022/01/12 10:25:30;;;;;;;22.30;7.17;;;;;;;-13.47;95.08;100763.98;1718389;81;21692;-63
2022/01/12 10:28:21;;;;;;;20.77;7.65;;;;;;;-13.40;95.19;100764.28;1730348;81;21182;-66
2022/01/12 10:31:02;;;;;;;17.23;7.85;;;;;;;-13.35;95.24;100765.21;1701747;80;21091;-67
2022/01/12 10:33:31;;;;;;;20.65;7.65;;;;;;;-13.20;95.56;100763.04;1678363;82;21048;-64
2022/01/12 10:36:02;;;;;;;35.48;11.00;;;;;;;-13.03;95.86;100765.55;1703165;82;21571;-64
2022/01/12 10:38:31;;;;;;;36.65;11.00;;;;;;;-12.96;95.86;100765.38;1724220;80;21130;-64
2022/01/12 10:41:04;;;;;;;38.10;11.20;;;;;;;-12.95;95.70;100764.39;1698554;81;21231;-64
2022/01/12 10:43:43;;;;;;;51.28;15.75;;;;;;;-13.00;95.57;100763.98;1704275;81;21101;-65
2022/01/12 10:46:12;;;;;;;32.55;9.83;;;;;;;-13.03;95.55;100758.91;1675544;83;21092;-65
2022/01/12 10:48:53;;;;;;;39.95;12.40;;;;;;;-13.07;95.43;100764.16;1730037;81;21058;-65
2022/01/12 10:51:25;;;;;;;89.70;22.93;;;;;;;-13.08;95.47;100761.12;1725609;80;21823;-65
2022/01/12 10:54:01;;;;;;;30.45;10.03;;;;;;;-13.09;95.46;100770.08;1719525;80;21050;-63
2022/01/12 10:56:28;;;;;;;68.33;17.42;;;;;;;-13.14;95.22;100762.52;1714824;81;21003;-64
2022/01/12 10:58:58;;;;;;;46.08;13.88;;;;;;;-13.26;95.10;100752.97;1728081;81;20997;-63
2022/01/12 11:01:28;;;;;;;54.27;17.30;;;;;;;-13.27;95.08;100752.63;1718940;81;21173;-64
2022/01/12 11:03:55;;;;;;;34.65;12.30;;;;;;;-13.24;95.22;100753.68;1722666;82;21199;-64
2022/01/12 11:06:22;;;;;;;41.63;14.47;;;;;;;-13.24;95.22;100750.55;1712610;82;21693;-64
2022/01/12 11:08:49;;;;;;;28.75;11.80;;;;;;;-13.17;95.35;100751.33;1710680;81;21059;-64
2022/01/12 11:11:19;;;;;;;25.32;10.20;;;;;;;-13.13;95.33;100746.09;1700488;82;21138;-65
2022/01/12 11:13:50;;;;;;;20.82;9.20;;;;;;;-13.12;95.29;100748.64;1685563;83;21113;-64
2022/01/12 11:16:24;;;;;;;20.82;8.48;;;;;;;-13.18;95.05;100747.02;1689810;82;21042;-64
2022/01/12 11:18:54;;;;;;;15.85;6.90;;;;;;;-13.29;94.93;100748.78;1673736;83;21117;-65
2022/01/12 11:21:28;;;;;;;21.52;6.90;;;;;;;-13.37;94.82;100748.61;1722263;81;21067;-65
2022/01/12 11:23:57;;;;;;;15.95;5.90;;;;;;;-13.41;94.75;100748.50;1730005;80;21066;-66
2022/01/12 11:26:25;;;;;;;16.15;7.22;;;;;;;-13.44;94.66;100750.44;1707343;81;21099;-63
2022/01/12 11:28:52;;;;;;;16.93;6.22;;;;;;;-13.44;94.79;100735.85;1725090;80;21127;-64
2022/01/12 11:31:32;;;;;;;13.62;6.33;;;;;;;-13.38;94.91;100733.64;1726913;81;21546;-64
2022/01/12 11:33:59;;;;;;;23.75;8.30;;;;;;;-13.28;94.99;100734.53;1705452;81;21060;-64
2022/01/12 11:36:40;;;;;;;21.33;7.67;;;;;;;-13.27;94.90;100736.70;1708145;81;22174;-63
2022/01/12 11:39:15;;;;;;;17.95;7.65;;;;;;;-13.30;94.91;100743.10;1717719;82;21035;-63
2022/01/12 11:41:46;;;;;;;22.37;9.23;;;;;;;-13.20;94.81;100733.84;1709035;80;21224;-65
2022/01/12 11:44:22;;;;;;;14.75;7.05;;;;;;;-13.19;95.04;100730.23;1722163;81;21109;-64
2022/01/12 11:46:53;;;;;;;13.30;5.75;;;;;;;-13.16;95.12;100736.59;1732148;82;21039;-63
2022/01/12 11:49:45;;;;;;;16.77;6.05;;;;;;;-13.06;95.28;100741.94;1717913;82;21608;-65
2022/01/12 11:52:22;;;;;;;14.78;6.53;;;;;;;-13.05;95.25;100733.49;1738865;81;21099;-64
2022/01/12 11:54:54;;;;;;;14.55;5.80;;;;;;;-13.02;95.36;100735.39;1689688;83;21571;-63
2022/01/12 11:57:36;;;;;;;13.85;5.60;;;;;;;-13.02;95.33;100732.73;1687556;81;21650;-64
2022/01/12 12:00:15;;;;;;;8.20;3.65;;;;;;;-13.01;95.20;100738.39;1719624;82;21121;-65
2022/01/12 12:02:51;;;;;;;20.72;6.50;;;;;;;-13.03;94.88;100737.68;1717776;82;21050;-64
2022/01/12 12:05:24;;;;;;;17.57;6.60;;;;;;;-13.03;95.28;100736.35;1704663;82;21075;-64
2022/01/12 12:07:53;;;;;;;;;;;;;;;-13.02;95.32;100732.73;1716363;82;21218;-63
2022/01/12 12:10:26;;;;;;;14.18;5.45;;;;;;;-13.01;95.20;100729.09;1720178;82;20164;-65
2022/01/12 12:12:54;;;;;;;14.55;5.75;;;;;;;-13.04;95.13;100734.69;1727478;81;21089;-65
2022/01/12 12:15:23;;;;;;;14.98;7.30;;;;;;;-13.08;95.12;100729.28;1719589;82;21043;-64
2022/01/12 12:17:51;;;;;;;18.67;7.33;;;;;;;-13.08;95.23;100724.81;1698323;82;21035;-63
2022/01/12 12:20:20;;;;;;;19.77;6.30;;;;;;;-12.99;95.41;100717.86;1702854;81;21178;-63
2022/01/12 12:22:48;;;;;;;16.02;7.10;;;;;;;-12.91;95.32;100717.17;1704059;81;21106;-63
2022/01/12 12:25:22;;;;;;;17.37;6.90;;;;;;;-12.85;95.22;100722.44;1683754;83;21064;-65
2022/01/12 12:28:01;;;;;;;16.65;6.83;;;;;;;-12.88;95.10;100716.08;1680839;83;21044;-64
2022/01/12 12:30:30;;;;;;;14.98;5.70;;;;;;;-12.85;94.92;100717.97;1691884;83;21067;-64
2022/01/12 12:33:08;;;;;;;15.23;5.53;;;;;;;-12.76;94.79;100715.47;1686452;83;21167;-63
2022/01/12 12:35:35;;;;;;;17.65;7.75;;;;;;;-12.60;94.89;100703.81;1711989;81;21217;-64
2022/01/12 12:38:06;;;;;;;19.80;7.58;;;;;;;-12.31;94.98;100698.14;1712298;82;21523;-65
2022/01/12 12:40:45;;;;;;;21.35;7.97;;;;;;;-12.21;94.87;100700.79;1719862;79;21047;-64
2022/01/12 12:43:22;;;;;;;22.48;9.28;;;;;;;-11.92;95.08;100693.75;1709674;80;21000;-64
2022/01/12 12:46:05;;;;;;;22.55;8.23;;;;;;;-11.59;95.14;100699.53;1707665;81;21170;-63
2022/01/12 12:48:33;;;;;;;18.57;7.90;;;;;;;-11.18;95.49;100695.23;1682980;83;21052;-64
2022/01/12 12:51:08;;;;;;;19.57;7.70;;;;;;;-10.90;95.35;100698.38;1701694;82;21053;-65
2022/01/12 12:53:37;;;;;;;21.48;7.62;;;;;;;-10.67;95.40;100703.27;1701925;81;21556;-64
2022/01/12 12:56:04;;;;;;;23.80;9.50;;;;;;;-10.51;95.16;100702.09;1676057;83;21090;-66
2022/01/12 12:58:36;;;;;;;15.05;7.45;;;;;;;-10.39;94.90;100711.19;1717597;81;21131;-65
2022/01/12 13:01:09;;;;;;;19.98;8.93;;;;;;;-10.09;95.22;100705.58;1714885;82;21193;-64
2022/01/12 13:03:39;;;;;;;23.70;10.43;;;;;;;-9.94;94.42;100706.70;1705421;81;21583;-64
2022/01/12 13:06:06;;;;;;;19.82;8.38;;;;;;;-10.12;93.82;100705.90;1722760;80;21090;-66
2022/01/12 13:08:32;;;;;;;28.52;10.28;;;;;;;-10.25;93.29;100704.45;1665240;83;21121;-64